Time;durP1;ratioP1;P1;durP2;ratioP2;P2;SDS_P1;SDS_P2;PMS_P1;PMS_P2;Temp;Humidity;BMP_temperature;BMP_pressure;BME280_temperature;BME280_humidity;BME280_pressure;Samples;Min_cycle;Max_cycle;Signal;HPM_P1;HPM_P2
2022/02/12 00:00:17;;;;;;;6.30;1.80;;;;;;;;;;5031318;28;20112;-66
2022/02/12 00:02:43;;;;;;;7.53;2.47;;;;;;;;;;5030343;28;20029;-66
2022/02/12 00:05:09;;;;;;;3.47;1.80;;;;;;;;;;5030807;28;20546;-66
2022/02/12 00:07:34;;;;;;;3.65;1.95;;;;;;;;;;5031298;28;21367;-66
2022/02/12 00:10:00;;;;;;;4.35;1.90;;;;;;;;;;5030200;28;20037;-67
2022/02/12 00:12:25;;;;;;;5.15;1.73;;;;;;;;;;5039458;28;20108;-66
2022/02/12 00:14:50;;;;;;;6.03;1.60;;;;;;;;;;5033564;28;20021;-66
2022/02/12 00:17:16;;;;;;;5.43;1.75;;;;;;;;;;5031420;28;20029;-66
2022/02/12 00:19:41;;;;;;;4.53;1.77;;;;;;;;;;5028854;28;20120;-65
2022/02/12 00:22:06;;;;;;;5.25;1.48;;;;;;;;;;5028933;28;20029;-65
2022/02/12 00:24:31;;;;;;;4.97;1.65;;;;;;;;;;5023742;28;20034;-66
2022/02/12 00:26:56;;;;;;;5.03;1.20;;;;;;;;;;5032322;28;20041;-64
2022/02/12 00:29:22;;;;;;;6.65;1.67;;;;;;;;;;5034294;28;20014;-65
2022/02/12 00:31:47;;;;;;;5.72;1.30;;;;;;;;;;5018677;28;20026;-65
2022/02/12 00:34:12;;;;;;;4.57;1.05;;;;;;;;;;5029962;28;20417;-64
2022/02/12 00:36:37;;;;;;;6.50;1.27;;;;;;;;;;5034652;28;20106;-66
2022/02/12 00:39:05;;;;;;;4.07;1.17;;;;;;;;;;5033233;28;20121;-66
2022/02/12 00:41:31;;;;;;;5.30;1.08;;;;;;;;;;5032999;28;20033;-66
2022/02/12 00:43:56;;;;;;;5.95;1.30;;;;;;;;;;5033726;28;20034;-66
2022/02/12 00:46:21;;;;;;;4.57;1.63;;;;;;;;;;5034091;28;20029;-66
2022/02/12 00:48:47;;;;;;;7.18;1.77;;;;;;;;;;5032226;28;20022;-66
2022/02/12 00:51:13;;;;;;;5.32;1.80;;;;;;;;;;5030331;28;20021;-66
2022/02/12 00:53:39;;;;;;;5.20;1.50;;;;;;;;;;5020229;28;20042;-66
2022/02/12 00:56:04;;;;;;;6.37;1.80;;;;;;;;;;5029205;28;20042;-67
2022/02/12 00:58:29;;;;;;;4.97;1.53;;;;;;;;;;5049055;28;20083;-66
2022/02/12 01:00:54;;;;;;;4.68;1.55;;;;;;;;;;5024970;28;20043;-66
2022/02/12 01:03:20;;;;;;;7.87;1.77;;;;;;;;;;5032512;28;20438;-66
2022/02/12 01:05:45;;;;;;;4.32;1.52;;;;;;;;;;5039911;28;20029;-65
2022/02/12 01:08:10;;;;;;;6.57;2.20;;;;;;;;;;5032199;28;20443;-65
2022/02/12 01:10:35;;;;;;;4.60;1.20;;;;;;;;;;5028420;28;20454;-65
2022/02/12 01:13:01;;;;;;;7.00;2.22;;;;;;;;;;5033539;28;20040;-65
2022/02/12 01:15:26;;;;;;;4.43;1.17;;;;;;;;;;5038192;28;20029;-65
2022/02/12 01:17:52;;;;;;;5.97;1.98;;;;;;;;;;5033808;28;20074;-65
2022/02/12 01:20:17;;;;;;;6.20;1.77;;;;;;;;;;5033084;28;20109;-65
2022/02/12 01:22:43;;;;;;;5.60;1.60;;;;;;;;;;5021228;28;20132;-66
2022/02/12 01:25:11;;;;;;;4.93;1.35;;;;;;;;;;5013548;28;20018;-65
2022/02/12 01:27:36;;;;;;;6.20;1.85;;;;;;;;;;5031674;28;20025;-65
2022/02/12 01:30:02;;;;;;;4.28;1.05;;;;;;;;;;5031767;28;20378;-65
2022/02/12 01:32:29;;;;;;;5.43;1.17;;;;;;;;;;5032213;28;20047;-65
2022/02/12 01:34:54;;;;;;;4.53;1.52;;;;;;;;;;5033224;28;20026;-65
2022/02/12 01:37:20;;;;;;;7.55;1.90;;;;;;;;;;5033352;28;20029;-66
2022/02/12 01:39:45;;;;;;;6.95;2.55;;;;;;;;;;5026514;28;20025;-66
2022/02/12 01:42:10;;;;;;;5.03;1.40;;;;;;;;;;5031886;28;20029;-66
2022/02/12 01:44:37;;;;;;;9.13;1.77;;;;;;;;;;5030610;28;20025;-66
2022/02/12 01:47:03;;;;;;;6.63;1.30;;;;;;;;;;5042307;28;20017;-65
2022/02/12 01:49:29;;;;;;;6.20;2.15;;;;;;;;;;5038473;28;20082;-65
2022/02/12 01:51:55;;;;;;;5.30;1.10;;;;;;;;;;5038517;28;20026;-65
2022/02/12 01:54:22;;;;;;;7.05;1.20;;;;;;;;;;5033649;28;20561;-65
2022/02/12 01:56:47;;;;;;;4.38;1.40;;;;;;;;;;5026655;28;20029;-65
2022/02/12 01:59:13;;;;;;;4.50;1.02;;;;;;;;;;5040811;28;20037;-65
2022/02/12 02:01:38;;;;;;;7.63;1.55;;;;;;;;;;5032442;28;20029;-65
2022/02/12 02:04:04;;;;;;;7.57;1.30;;;;;;;;;;5031542;28;20025;-66
2022/02/12 02:06:29;;;;;;;6.23;1.57;;;;;;;;;;5031685;28;20586;-66
2022/02/12 02:08:54;;;;;;;4.25;1.30;;;;;;;;;;5029852;28;20022;-66
2022/02/12 02:11:19;;;;;;;6.68;1.50;;;;;;;;;;5037320;28;20041;-66
2022/02/12 02:13:45;;;;;;;6.22;1.20;;;;;;;;;;5032759;28;20079;-67
2022/02/12 02:16:11;;;;;;;5.93;1.88;;;;;;;;;;5035906;28;20218;-67
2022/02/12 02:18:36;;;;;;;6.67;1.27;;;;;;;;;;5038921;28;20057;-67
2022/02/12 02:21:01;;;;;;;7.85;1.13;;;;;;;;;;5037555;28;20036;-66
2022/02/12 02:23:26;;;;;;;5.87;1.40;;;;;;;;;;5028159;28;20075;-66
2022/02/12 02:25:53;;;;;;;6.27;1.10;;;;;;;;;;5015332;28;20017;-66
2022/02/12 02:28:18;;;;;;;4.43;1.63;;;;;;;;;;5032475;28;20033;-66
2022/02/12 02:30:43;;;;;;;5.00;1.30;;;;;;;;;;5031600;28;20021;-66
2022/02/12 02:33:09;;;;;;;6.70;1.60;;;;;;;;;;5030810;28;20067;-66
2022/02/12 02:35:34;;;;;;;7.30;1.37;;;;;;;;;;5032524;28;20044;-66
2022/02/12 02:38:07;;;;;;;8.20;1.40;;;;;;;;;;5039949;28;20495;-66
2022/02/12 02:40:32;;;;;;;5.53;1.33;;;;;;;;;;5047055;28;20064;-66
2022/02/12 02:42:57;;;;;;;6.00;1.03;;;;;;;;;;5032578;28;20063;-66
2022/02/12 02:45:23;;;;;;;3.87;1.37;;;;;;;;;;5032120;28;20466;-65
2022/02/12 02:47:48;;;;;;;5.33;1.03;;;;;;;;;;5039003;28;20371;-65
2022/02/12 02:56:01;;;;;;;6.47;1.30;;;;;;;;;;5013532;28;19924;-65
2022/02/12 02:58:46;;;;;;;8.17;1.30;;;;;;;;;;5030228;28;20030;-66
2022/02/12 03:01:22;;;;;;;6.20;1.50;;;;;;;;;;5028582;28;20026;-66
2022/02/12 03:03:51;;;;;;;5.13;0.90;;;;;;;;;;5031810;28;20037;-66
2022/02/12 03:06:17;;;;;;;9.10;1.40;;;;;;;;;;5031448;28;20022;-66
2022/02/12 03:08:43;;;;;;;5.37;1.30;;;;;;;;;;5034601;28;20539;-66
2022/02/12 03:11:09;;;;;;;6.10;0.80;;;;;;;;;;5030439;28;20037;-66
2022/02/12 03:13:34;;;;;;;7.23;1.00;;;;;;;;;;5031762;28;20053;-66
2022/02/12 03:16:00;;;;;;;9.17;1.50;;;;;;;;;;5030286;28;20426;-65
2022/02/12 03:18:25;;;;;;;6.40;0.83;;;;;;;;;;5033144;28;20097;-65
2022/02/12 03:20:51;;;;;;;3.70;1.50;;;;;;;;;;5050512;28;20426;-66
2022/02/12 03:23:19;;;;;;;5.80;1.00;;;;;;;;;;5023166;28;20016;-66
2022/02/12 03:25:44;;;;;;;5.40;0.80;;;;;;;;;;5012171;28;20022;-66
2022/02/12 03:28:10;;;;;;;6.70;1.67;;;;;;;;;;5029287;28;20083;-66
2022/02/12 03:30:36;;;;;;;4.70;1.47;;;;;;;;;;5027851;28;20028;-66
2022/02/12 03:33:01;;;;;;;8.30;1.57;;;;;;;;;;5025822;28;20021;-67
2022/02/12 03:35:27;;;;;;;6.33;1.37;;;;;;;;;;5031185;28;20120;-67
2022/02/12 03:38:07;;;;;;;15.20;2.60;;;;;;;;;;5041745;28;20492;-67
2022/02/12 03:40:36;;;;;;;6.43;1.20;;;;;;;;;;5032815;28;20021;-67
2022/02/12 03:43:02;;;;;;;5.40;0.90;;;;;;;;;;5032855;28;20025;-67
2022/02/12 03:45:27;;;;;;;10.77;1.77;;;;;;;;;;5029244;28;20033;-67
2022/02/12 03:47:52;;;;;;;5.60;1.20;;;;;;;;;;5036983;28;20024;-67
2022/02/12 03:50:17;;;;;;;8.53;1.57;;;;;;;;;;5031260;28;20494;-67
2022/02/12 03:52:43;;;;;;;5.30;1.30;;;;;;;;;;5018287;28;20022;-67
2022/02/12 03:55:08;;;;;;;6.20;1.00;;;;;;;;;;5023500;28;20520;-67
2022/02/12 03:57:34;;;;;;;4.40;1.07;;;;;;;;;;5022068;28;20401;-67
2022/02/12 03:59:59;;;;;;;9.40;1.80;;;;;;;;;;5029433;28;20432;-67
2022/02/12 04:02:25;;;;;;;8.10;1.80;;;;;;;;;;5025786;28;20034;-67
2022/02/12 04:04:50;;;;;;;7.17;1.37;;;;;;;;;;5025989;28;20032;-67
2022/02/12 04:07:16;;;;;;;10.87;2.07;;;;;;;;;;5035010;28;20116;-67
2022/02/12 04:09:41;;;;;;;4.93;1.00;;;;;;;;;;5023216;28;20022;-67
2022/02/12 04:12:06;;;;;;;8.10;2.37;;;;;;;;;;5028348;28;20025;-67
2022/02/12 04:14:32;;;;;;;6.50;1.40;;;;;;;;;;5037787;28;20033;-67
2022/02/12 04:16:57;;;;;;;5.57;1.80;;;;;;;;;;5039701;28;20380;-67
2022/02/12 04:19:22;;;;;;;9.30;2.10;;;;;;;;;;5034388;28;20033;-67
2022/02/12 04:21:47;;;;;;;8.43;1.73;;;;;;;;;;5014833;28;20049;-67
2022/02/12 04:24:12;;;;;;;6.77;2.50;;;;;;;;;;5032836;28;20017;-67
2022/02/12 04:26:37;;;;;;;8.50;1.83;;;;;;;;;;5032914;28;20482;-67
2022/02/12 04:29:03;;;;;;;6.10;1.50;;;;;;;;;;5034943;28;20060;-67
2022/02/12 04:31:28;;;;;;;10.93;2.53;;;;;;;;;;5022797;28;20478;-67
2022/02/12 04:33:53;;;;;;;9.77;2.50;;;;;;;;;;5034679;28;20493;-66
2022/02/12 04:36:18;;;;;;;6.37;1.80;;;;;;;;;;5033958;28;20021;-66
2022/02/12 04:38:43;;;;;;;6.50;1.83;;;;;;;;;;5030403;28;20030;-66
2022/02/12 04:41:09;;;;;;;9.53;2.30;;;;;;;;;;5015283;28;20394;-66
2022/02/12 04:43:37;;;;;;;7.97;2.03;;;;;;;;;;5037077;28;20377;-66
2022/02/12 04:46:02;;;;;;;8.97;2.07;;;;;;;;;;5049885;28;20021;-66
2022/02/12 04:48:27;;;;;;;9.47;2.20;;;;;;;;;;5033577;28;20406;-66
2022/02/12 04:50:52;;;;;;;14.47;2.87;;;;;;;;;;5035063;28;20104;-66
2022/02/12 04:53:17;;;;;;;5.57;1.83;;;;;;;;;;5016793;28;20389;-66
2022/02/12 04:55:43;;;;;;;6.37;2.40;;;;;;;;;;5046520;28;20068;-67
2022/02/12 04:58:08;;;;;;;5.77;2.37;;;;;;;;;;5029290;28;20493;-67
2022/02/12 05:00:33;;;;;;;9.83;2.90;;;;;;;;;;5034000;28;20045;-67
2022/02/12 05:02:58;;;;;;;7.47;2.57;;;;;;;;;;5032770;28;20486;-67
2022/02/12 05:05:24;;;;;;;7.63;2.40;;;;;;;;;;5043407;28;20017;-66
2022/02/12 05:07:49;;;;;;;7.47;2.73;;;;;;;;;;5041503;28;20036;-67
2022/02/12 05:10:15;;;;;;;7.93;2.13;;;;;;;;;;5017830;28;20022;-66
2022/02/12 05:12:40;;;;;;;8.50;2.37;;;;;;;;;;5022278;28;20033;-66
2022/02/12 05:15:07;;;;;;;7.63;2.67;;;;;;;;;;5037854;28;20549;-66
2022/02/12 05:17:32;;;;;;;6.10;2.50;;;;;;;;;;5046294;28;20075;-67
2022/02/12 05:19:57;;;;;;;9.03;2.97;;;;;;;;;;5033141;28;20029;-67
2022/02/12 05:22:23;;;;;;;8.30;2.63;;;;;;;;;;5029275;28;20033;-66
2022/02/12 05:24:48;;;;;;;9.23;2.90;;;;;;;;;;5041287;28;20437;-66
2022/02/12 05:27:13;;;;;;;11.03;3.47;;;;;;;;;;5032352;28;20026;-66
2022/02/12 05:29:38;;;;;;;5.63;2.77;;;;;;;;;;5031617;28;20026;-66
2022/02/12 05:32:04;;;;;;;8.30;3.30;;;;;;;;;;5015321;28;20474;-67
2022/02/12 05:34:29;;;;;;;8.90;2.53;;;;;;;;;;5013746;28;20273;-66
2022/02/12 05:36:54;;;;;;;8.10;2.80;;;;;;;;;;5047338;28;20033;-66
2022/02/12 05:39:20;;;;;;;5.80;2.67;;;;;;;;;;5030787;28;20044;-67
2022/02/12 05:41:45;;;;;;;8.13;3.03;;;;;;;;;;5032029;28;20057;-67
2022/02/12 05:44:10;;;;;;;6.13;2.53;;;;;;;;;;5032463;28;20476;-66
2022/02/12 05:46:35;;;;;;;7.53;2.60;;;;;;;;;;5027283;28;20021;-66
2022/02/12 05:49:01;;;;;;;8.17;2.40;;;;;;;;;;5034811;28;20022;-66
2022/02/12 05:51:30;;;;;;;9.30;2.90;;;;;;;;;;5030457;28;20501;-67
2022/02/12 05:53:56;;;;;;;5.37;2.40;;;;;;;;;;5031417;28;20026;-67
2022/02/12 05:56:21;;;;;;;9.17;3.17;;;;;;;;;;5031244;28;20514;-66
2022/02/12 05:58:46;;;;;;;7.43;3.23;;;;;;;;;;5032465;28;20034;-66
2022/02/12 06:01:12;;;;;;;10.83;2.97;;;;;;;;;;5030258;28;20033;-66
2022/02/12 06:03:37;;;;;;;9.77;3.70;;;;;;;;;;5033765;28;20022;-66
2022/02/12 06:06:02;;;;;;;8.20;3.30;;;;;;;;;;5030639;28;20021;-67
2022/02/12 06:08:27;;;;;;;6.57;2.77;;;;;;;;;;5028641;28;20584;-66
2022/02/12 06:10:53;;;;;;;7.93;3.10;;;;;;;;;;5030914;28;20017;-65
2022/02/12 06:13:18;;;;;;;11.13;2.73;;;;;;;;;;5035850;28;20122;-66
2022/02/12 06:15:43;;;;;;;7.80;3.10;;;;;;;;;;5029223;28;20017;-66
2022/02/12 06:18:08;;;;;;;10.10;2.93;;;;;;;;;;5031092;28;20439;-66
2022/02/12 06:20:34;;;;;;;9.60;3.00;;;;;;;;;;5031646;28;20113;-66
2022/02/12 06:22:59;;;;;;;8.27;3.10;;;;;;;;;;5025425;28;20727;-66
2022/02/12 06:25:25;;;;;;;6.40;2.77;;;;;;;;;;5029833;28;20021;-66
2022/02/12 06:27:50;;;;;;;9.93;3.50;;;;;;;;;;5032424;28;20033;-66
2022/02/12 06:30:16;;;;;;;7.13;3.03;;;;;;;;;;5028615;28;20088;-66
2022/02/12 06:32:42;;;;;;;7.47;3.10;;;;;;;;;;5030991;28;20037;-66
2022/02/12 06:35:07;;;;;;;12.53;3.50;;;;;;;;;;5031439;28;20071;-65
2022/02/12 06:37:32;;;;;;;8.93;3.90;;;;;;;;;;5031360;28;20033;-65
2022/02/12 06:39:58;;;;;;;10.20;3.53;;;;;;;;;;5030466;28;20076;-66
2022/02/12 06:42:23;;;;;;;15.70;4.70;;;;;;;;;;5031597;28;20441;-66
2022/02/12 06:44:49;;;;;;;12.60;4.63;;;;;;;;;;5027085;28;20248;-65
2022/02/12 06:47:14;;;;;;;11.13;4.17;;;;;;;;;;5032760;28;20026;-66
2022/02/12 06:49:39;;;;;;;10.93;4.00;;;;;;;;;;5031009;28;20064;-65
2022/02/12 06:52:05;;;;;;;10.57;3.33;;;;;;;;;;5022418;28;20109;-65
2022/02/12 06:54:30;;;;;;;9.87;3.17;;;;;;;;;;5029575;28;20064;-65
2022/02/12 06:56:56;;;;;;;8.30;3.00;;;;;;;;;;5033078;28;20212;-65
2022/02/12 06:59:22;;;;;;;9.50;3.00;;;;;;;;;;5029883;28;20470;-64
2022/02/12 07:01:47;;;;;;;7.63;2.83;;;;;;;;;;5031534;28;20028;-64
2022/02/12 07:04:13;;;;;;;5.77;2.83;;;;;;;;;;5029632;28;20393;-64
2022/02/12 07:06:39;;;;;;;7.00;2.87;;;;;;;;;;5031332;28;20025;-64
2022/02/12 07:09:04;;;;;;;10.27;3.10;;;;;;;;;;5029461;28;20021;-64
2022/02/12 07:11:30;;;;;;;8.50;2.97;;;;;;;;;;5031763;28;20044;-65
2022/02/12 07:13:55;;;;;;;9.20;3.40;;;;;;;;;;5031983;28;20021;-65
2022/02/12 07:16:20;;;;;;;6.50;2.37;;;;;;;;;;5035502;28;20027;-65
2022/02/12 07:18:47;;;;;;;6.53;2.57;;;;;;;;;;5036499;28;20028;-64
2022/02/12 07:21:12;;;;;;;6.97;3.27;;;;;;;;;;5029436;28;20031;-65
2022/02/12 07:23:37;;;;;;;8.07;3.40;;;;;;;;;;5023661;28;20441;-65
2022/02/12 07:26:02;;;;;;;7.43;3.00;;;;;;;;;;5048610;28;20485;-65
2022/02/12 07:28:29;;;;;;;8.40;2.93;;;;;;;;;;5033194;28;20044;-64
2022/02/12 07:30:55;;;;;;;10.80;2.50;;;;;;;;;;5021933;28;20026;-64
2022/02/12 07:33:21;;;;;;;9.47;3.37;;;;;;;;;;5030327;28;20040;-65
2022/02/12 07:35:49;;;;;;;9.47;3.40;;;;;;;;;;5039521;28;20021;-64
2022/02/12 07:38:15;;;;;;;8.00;3.00;;;;;;;;;;5035445;28;20478;-65
2022/02/12 07:40:40;;;;;;;6.53;2.77;;;;;;;;;;5045090;28;20053;-65
2022/02/12 07:43:06;;;;;;;7.60;2.83;;;;;;;;;;5035322;28;20040;-65
2022/02/12 07:45:32;;;;;;;9.87;2.53;;;;;;;;;;5043230;28;20106;-65
2022/02/12 07:47:58;;;;;;;8.27;3.00;;;;;;;;;;5039111;28;20120;-65
2022/02/12 07:50:23;;;;;;;6.03;3.07;;;;;;;;;;5035648;28;20108;-65
2022/02/12 07:52:48;;;;;;;8.33;3.20;;;;;;;;;;5025798;28;20026;-65
2022/02/12 07:55:14;;;;;;;9.10;3.50;;;;;;;;;;5019144;28;20057;-65
2022/02/12 07:57:39;;;;;;;10.17;3.07;;;;;;;;;;5049006;28;20393;-65
2022/02/12 08:00:05;;;;;;;6.07;3.10;;;;;;;;;;5053212;28;20033;-65
2022/02/12 08:02:31;;;;;;;8.37;3.77;;;;;;;;;;5034505;28;20120;-65
2022/02/12 08:04:56;;;;;;;8.37;3.40;;;;;;;;;;5035341;28;20501;-65
2022/02/12 08:07:28;;;;;;;10.33;3.40;;;;;;;;;;5036733;28;20442;-65
2022/02/12 08:10:00;;;;;;;10.33;3.50;;;;;;;;;;5032369;28;20022;-65
2022/02/12 08:12:26;;;;;;;7.10;3.33;;;;;;;;;;5026250;28;20029;-65
2022/02/12 08:14:52;;;;;;;7.37;3.93;;;;;;;;;;5037485;28;20025;-65
2022/02/12 08:17:18;;;;;;;10.70;3.90;;;;;;;;;;5038365;28;20496;-66
2022/02/12 08:19:44;;;;;;;8.90;4.17;;;;;;;;;;5046287;28;20026;-64
2022/02/12 08:22:11;;;;;;;9.97;3.73;;;;;;;;;;5028124;28;20039;-64
2022/02/12 08:24:36;;;;;;;8.50;4.20;;;;;;;;;;5033619;28;20029;-65
2022/02/12 08:27:01;;;;;;;9.63;4.70;;;;;;;;;;5038328;28;20025;-65
2022/02/12 08:29:28;;;;;;;6.37;3.50;;;;;;;;;;5029165;28;20471;-65
2022/02/12 08:31:57;;;;;;;11.43;4.30;;;;;;;;;;5034134;28;20398;-64
2022/02/12 08:34:25;;;;;;;6.93;3.93;;;;;;;;;;5028904;28;20022;-64
2022/02/12 08:36:51;;;;;;;7.67;3.70;;;;;;;;;;5045065;28;20032;-64
2022/02/12 08:39:16;;;;;;;8.30;3.40;;;;;;;;;;5032003;28;20048;-65
2022/02/12 08:41:41;;;;;;;6.43;3.90;;;;;;;;;;5036154;28;20111;-64
2022/02/12 08:44:06;;;;;;;10.43;3.83;;;;;;;;;;5031538;28;20013;-64
2022/02/12 08:46:32;;;;;;;8.30;3.47;;;;;;;;;;5047776;28;20024;-64
2022/02/12 08:48:58;;;;;;;6.67;4.13;;;;;;;;;;5020463;28;20010;-64
2022/02/12 08:51:23;;;;;;;8.27;3.77;;;;;;;;;;5011686;28;20578;-64
2022/02/12 08:53:49;;;;;;;8.77;4.27;;;;;;;;;;5014177;28;20104;-64
2022/02/12 08:56:14;;;;;;;7.33;3.57;;;;;;;;;;5026926;28;20030;-64
2022/02/12 08:58:39;;;;;;;5.40;3.23;;;;;;;;;;5017000;28;20627;-64
2022/02/12 09:01:05;;;;;;;5.77;2.93;;;;;;;;;;5033812;28;20025;-63
2022/02/12 09:03:30;;;;;;;8.90;2.90;;;;;;;;;;5043726;28;20430;-63
2022/02/12 09:05:55;;;;;;;7.47;3.60;;;;;;;;;;5047072;28;20025;-64
2022/02/12 09:08:20;;;;;;;7.70;3.30;;;;;;;;;;5030539;28;20022;-76
2022/02/12 09:10:47;;;;;;;5.10;2.30;;;;;;;;;;5045411;28;20040;-65
2022/02/12 09:13:12;;;;;;;4.60;1.70;;;;;;;;;;5033533;28;20091;-61
2022/02/12 09:15:37;;;;;;;4.17;1.90;;;;;;;;;;5031686;28;20033;-62
2022/02/12 09:18:03;;;;;;;5.17;2.00;;;;;;;;;;5029131;28;20032;-61
2022/02/12 09:20:28;;;;;;;4.10;1.80;;;;;;;;;;5028479;28;20025;-60
2022/02/12 09:22:53;;;;;;;6.13;1.60;;;;;;;;;;5018475;28;20129;-61
2022/02/12 09:25:18;;;;;;;3.40;1.70;;;;;;;;;;5023905;28;20348;-61
2022/02/12 09:27:44;;;;;;;4.43;1.93;;;;;;;;;;5025194;28;20036;-61
2022/02/12 09:30:09;;;;;;;4.85;1.75;;;;;;;;;;5039170;28;20017;-61
2022/02/12 09:32:35;;;;;;;4.85;1.35;;;;;;;;;;5030890;28;20040;-61
2022/02/12 09:35:00;;;;;;;4.03;1.70;;;;;;;;;;5032936;28;20059;-61
2022/02/12 09:37:25;;;;;;;4.20;1.87;;;;;;;;;;5032787;28;20083;-61
2022/02/12 09:39:51;;;;;;;6.28;1.95;;;;;;;;;;5034231;28;20513;-61
2022/02/12 09:42:16;;;;;;;5.30;1.90;;;;;;;;;;5032965;28;20075;-61
2022/02/12 09:44:42;;;;;;;4.40;1.35;;;;;;;;;;5033122;28;20466;-61
2022/02/12 09:47:25;;;;;;;3.70;1.30;;;;;;;;;;5032722;28;20032;-61
2022/02/12 09:49:53;;;;;;;2.80;1.52;;;;;;;;;;5016385;28;20026;-61
2022/02/12 09:52:18;;;;;;;1.87;1.47;;;;;;;;;;5020626;28;20024;-61
2022/02/12 09:54:44;;;;;;;3.50;1.20;;;;;;;;;;5032260;28;20045;-61
2022/02/12 09:57:10;;;;;;;2.63;1.37;;;;;;;;;;5036394;28;20037;-61
2022/02/12 09:59:35;;;;;;;4.63;1.13;;;;;;;;;;5011488;28;20390;-61
2022/02/12 10:02:00;;;;;;;3.73;1.63;;;;;;;;;;5029954;28;20391;-61
2022/02/12 10:04:29;;;;;;;5.05;2.00;;;;;;;;;;5023867;28;20069;-61
2022/02/12 10:06:54;;;;;;;3.05;1.65;;;;;;;;;;5027878;28;20037;-61
2022/02/12 10:09:19;;;;;;;5.05;1.80;;;;;;;;;;5022463;28;20025;-61
2022/02/12 10:11:49;;;;;;;4.05;1.75;;;;;;;;;;5026647;28;20038;-61
2022/02/12 10:14:15;;;;;;;3.63;1.65;;;;;;;;;;5021015;28;20051;-61
2022/02/12 10:16:57;;;;;;;4.18;1.50;;;;;;;;;;5023053;28;20037;-60
2022/02/12 10:19:32;;;;;;;4.55;1.52;;;;;;;;;;5028406;28;20036;-61
2022/02/12 10:22:05;;;;;;;3.60;1.75;;;;;;;;;;5019030;28;20033;-60
2022/02/12 10:25:04;;;;;;;2.67;1.13;;;;;;;;;;5021645;28;20017;-61
2022/02/12 10:27:30;;;;;;;4.70;1.52;;;;;;;;;;5025077;28;20037;-61
2022/02/12 10:29:58;;;;;;;3.75;0.95;;;;;;;;;;5025932;28;20047;-61
2022/02/12 10:32:24;;;;;;;2.65;0.88;;;;;;;;;;5023607;28;20036;-61
2022/02/12 10:34:50;;;;;;;1.13;0.68;;;;;;;;;;5028134;28;20026;-61
2022/02/12 10:37:17;;;;;;;2.00;0.88;;;;;;;;;;5021016;28;20497;-61
2022/02/12 10:39:55;;;;;;;1.90;1.00;;;;;;;;;;5025511;28;20116;-61
2022/02/12 10:42:21;;;;;;;1.55;0.90;;;;;;;;;;5015239;28;20041;-61
2022/02/12 10:44:46;;;;;;;3.33;1.45;;;;;;;;;;5020226;28;20033;-62
2022/02/12 10:47:15;;;;;;;2.10;0.98;;;;;;;;;;5028266;28;20113;-61
2022/02/12 10:49:41;;;;;;;2.58;1.30;;;;;;;;;;5020085;28;20030;-61
2022/02/12 10:52:07;;;;;;;5.55;1.20;;;;;;;;;;5022147;28;20029;-61
2022/02/12 10:54:39;;;;;;;4.22;1.23;;;;;;;;;;5020275;28;20428;-61
2022/02/12 10:57:04;;;;;;;2.15;0.88;;;;;;;;;;5011720;28;20190;-60
2022/02/12 10:59:32;;;;;;;2.53;0.82;;;;;;;;;;5023449;28;20280;-61
2022/02/12 11:01:57;;;;;;;2.15;1.20;;;;;;;;;;5027976;28;20478;-61
2022/02/12 11:04:23;;;;;;;1.73;1.30;;;;;;;;;;5026084;28;20040;-60
2022/02/12 11:06:49;;;;;;;2.08;1.17;;;;;;;;;;5013209;28;20052;-60
2022/02/12 11:09:14;;;;;;;3.40;1.55;;;;;;;;;;5011747;28;20084;-60
2022/02/12 11:11:40;;;;;;;3.20;1.40;;;;;;;;;;5013941;28;20483;-60
2022/02/12 11:14:08;;;;;;;3.13;1.42;;;;;;;;;;5017976;28;20032;-60
2022/02/12 11:16:35;;;;;;;3.22;1.17;;;;;;;;;;5019940;28;20470;-60
2022/02/12 11:19:01;;;;;;;2.80;1.25;;;;;;;;;;5014742;28;20041;-61
2022/02/12 11:21:29;;;;;;;2.60;1.30;;;;;;;;;;5019303;28;20026;-61
2022/02/12 11:24:04;;;;;;;2.85;1.73;;;;;;;;;;5010843;28;20051;-61
2022/02/12 11:26:45;;;;;;;2.85;1.40;;;;;;;;;;5017592;28;20022;-61
2022/02/12 11:29:33;;;;;;;2.75;1.40;;;;;;;;;;5019250;28;20092;-61
2022/02/12 11:32:11;;;;;;;3.65;1.38;;;;;;;;;;5025113;28;20034;-61
2022/02/12 11:34:39;;;;;;;2.40;1.10;;;;;;;;;;5020188;28;20482;-61
2022/02/12 11:37:12;;;;;;;3.58;1.60;;;;;;;;;;5013068;28;20479;-62
2022/02/12 11:39:37;;;;;;;2.42;1.30;;;;;;;;;;5031577;28;20024;-61
2022/02/12 11:42:04;;;;;;;2.30;1.30;;;;;;;;;;5014214;28;20034;-62
2022/02/12 11:44:43;;;;;;;2.70;1.65;;;;;;;;;;5023961;28;20273;-62
2022/02/12 11:47:09;;;;;;;1.63;1.25;;;;;;;;;;5011823;28;20029;-62
2022/02/12 11:49:41;;;;;;;1.80;1.42;;;;;;;;;;5020245;28;20033;-62
2022/02/12 11:52:10;;;;;;;2.17;1.30;;;;;;;;;;5013906;28;20480;-62
2022/02/12 11:54:44;;;;;;;2.58;2.08;;;;;;;;;;5016686;28;20046;-62
2022/02/12 11:57:29;;;;;;;3.77;1.30;;;;;;;;;;5038484;28;20387;-62
2022/02/12 12:00:00;;;;;;;2.13;1.52;;;;;;;;;;5015316;28;20292;-61
2022/02/12 12:02:37;;;;;;;2.13;0.90;;;;;;;;;;5030505;28;20056;-62
2022/02/12 12:05:21;;;;;;;2.30;1.25;;;;;;;;;;5030290;28;20086;-62
2022/02/12 12:07:58;;;;;;;3.72;1.00;;;;;;;;;;5020833;28;20101;-61
2022/02/12 12:10:23;;;;;;;1.45;1.15;;;;;;;;;;5017856;28;20075;-61
2022/02/12 12:12:49;;;;;;;1.50;1.10;;;;;;;;;;5030338;28;20041;-61
2022/02/12 12:15:15;;;;;;;2.35;1.17;;;;;;;;;;5026920;28;20053;-61
2022/02/12 12:17:41;;;;;;;2.78;0.80;;;;;;;;;;5025585;28;20025;-61
2022/02/12 12:20:06;;;;;;;1.58;1.20;;;;;;;;;;5014589;28;20029;-61
2022/02/12 12:22:32;;;;;;;2.15;1.27;;;;;;;;;;5015631;28;20029;-61
2022/02/12 12:24:57;;;;;;;2.35;1.08;;;;;;;;;;5031197;28;20048;-62
2022/02/12 12:27:22;;;;;;;1.30;0.80;;;;;;;;;;5030086;28;20422;-61
2022/02/12 12:32:33;;;;;;;0.82;0.80;;;;;;;;;;5016197;28;20599;-61
2022/02/12 12:35:03;;;;;;;1.55;1.35;;;;;;;;;;5018730;28;20048;-61
2022/02/12 12:37:29;;;;;;;1.95;1.15;;;;;;;;;;5023904;28;20033;-61
2022/02/12 12:39:59;;;;;;;1.38;0.60;;;;;;;;;;5015831;28;20034;-61
2022/02/12 12:42:25;;;;;;;1.75;0.68;;;;;;;;;;5014568;28;20049;-61
2022/02/12 12:45:01;;;;;;;1.08;0.52;;;;;;;;;;5023351;28;20026;-61
2022/02/12 12:47:27;;;;;;;1.25;0.50;;;;;;;;;;5019974;28;20482;-61
2022/02/12 12:49:53;;;;;;;0.95;0.50;;;;;;;;;;5014779;28;20109;-61
2022/02/12 12:52:23;;;;;;;1.35;0.40;;;;;;;;;;5018680;28;20025;-61
2022/02/12 12:54:48;;;;;;;0.88;0.40;;;;;;;;;;5022748;28;20045;-62
2022/02/12 12:57:14;;;;;;;1.00;0.50;;;;;;;;;;5014303;28;20029;-62
2022/02/12 12:59:52;;;;;;;1.00;0.50;;;;;;;;;;5024610;28;20025;-62
2022/02/12 13:02:18;;;;;;;1.30;0.35;;;;;;;;;;5014613;28;20364;-62
2022/02/12 13:04:56;;;;;;;1.13;0.60;;;;;;;;;;5014485;28;20084;-61
2022/02/12 13:07:25;;;;;;;0.98;0.50;;;;;;;;;;5029803;28;20303;-61
2022/02/12 13:09:51;;;;;;;0.93;0.50;;;;;;;;;;5013330;28;20034;-62
2022/02/12 13:12:22;;;;;;;0.95;0.70;;;;;;;;;;5020454;28;20544;-62
2022/02/12 13:14:47;;;;;;;2.42;0.82;;;;;;;;;;5021988;28;20018;-61
2022/02/12 13:17:12;;;;;;;1.42;0.57;;;;;;;;;;5015707;28;20088;-61
2022/02/12 13:19:38;;;;;;;2.13;1.10;;;;;;;;;;5014196;28;20060;-62
2022/02/12 13:22:03;;;;;;;2.25;0.98;;;;;;;;;;5030363;28;20029;-61
2022/02/12 13:24:32;;;;;;;1.95;0.90;;;;;;;;;;5031764;28;20030;-61
2022/02/12 13:26:57;;;;;;;2.45;0.80;;;;;;;;;;5025329;28;20060;-61
2022/02/12 13:29:24;;;;;;;1.92;1.10;;;;;;;;;;5017482;28;20057;-61
2022/02/12 13:31:51;;;;;;;1.50;0.80;;;;;;;;;;5023910;28;20100;-61
2022/02/12 13:34:17;;;;;;;2.15;0.70;;;;;;;;;;5019307;28;20100;-61
2022/02/12 13:36:46;;;;;;;1.98;0.70;;;;;;;;;;5031660;28;20025;-62
2022/02/12 13:39:14;;;;;;;1.55;0.70;;;;;;;;;;5022708;28;21305;-61
2022/02/12 13:41:40;;;;;;;1.15;0.70;;;;;;;;;;5017765;28;20142;-61
2022/02/12 13:44:05;;;;;;;1.38;0.60;;;;;;;;;;5029885;28;20466;-62
2022/02/12 13:46:38;;;;;;;1.33;0.60;;;;;;;;;;5021190;28;20033;-61
2022/02/12 13:49:14;;;;;;;0.73;0.40;;;;;;;;;;5015823;28;20096;-61
2022/02/12 13:51:49;;;;;;;2.05;0.60;;;;;;;;;;5019431;28;20100;-61
2022/02/12 13:54:14;;;;;;;1.17;0.63;;;;;;;;;;5044790;28;20042;-61
2022/02/12 13:56:41;;;;;;;1.95;0.50;;;;;;;;;;5014660;28;20387;-61
2022/02/12 13:59:07;;;;;;;2.35;1.00;;;;;;;;;;5017348;28;20055;-61
2022/02/12 14:01:32;;;;;;;2.00;0.88;;;;;;;;;;5018866;28;20058;-60
2022/02/12 14:03:57;;;;;;;0.80;0.43;;;;;;;;;;5019686;28;20041;-61
2022/02/12 14:06:22;;;;;;;2.63;0.90;;;;;;;;;;5016702;28;20060;-61
2022/02/12 14:08:47;;;;;;;1.85;0.85;;;;;;;;;;5016885;28;20056;-61
2022/02/12 14:11:13;;;;;;;2.33;0.70;;;;;;;;;;5024917;28;20022;-61
2022/02/12 14:13:38;;;;;;;1.60;0.98;;;;;;;;;;5031646;28;20022;-61
2022/02/12 14:16:03;;;;;;;2.55;0.60;;;;;;;;;;5024981;28;20030;-60
2022/02/12 14:18:29;;;;;;;1.95;1.15;;;;;;;;;;5017912;28;20037;-63
2022/02/12 14:20:55;;;;;;;1.35;0.80;;;;;;;;;;5013675;28;20030;-63
2022/02/12 14:23:20;;;;;;;0.95;0.60;;;;;;;;;;5010821;28;20632;-63
2022/02/12 14:25:46;;;;;;;1.48;0.70;;;;;;;;;;5024058;28;20096;-64
2022/02/12 14:28:12;;;;;;;1.88;0.73;;;;;;;;;;5026806;28;20108;-64
2022/02/12 14:30:38;;;;;;;1.88;0.70;;;;;;;;;;5021502;28;20498;-63
2022/02/12 14:33:03;;;;;;;1.23;0.70;;;;;;;;;;5025199;28;20036;-63
2022/02/12 14:35:28;;;;;;;1.40;0.80;;;;;;;;;;5029669;28;20025;-63
2022/02/12 14:37:54;;;;;;;3.40;0.77;;;;;;;;;;5028309;28;20037;-63
2022/02/12 14:40:19;;;;;;;2.45;0.75;;;;;;;;;;5021245;28;20063;-63
2022/02/12 14:42:44;;;;;;;1.75;0.70;;;;;;;;;;5021091;28;20037;-63
2022/02/12 14:45:10;;;;;;;1.38;0.70;;;;;;;;;;5027543;28;20541;-63
2022/02/12 14:47:35;;;;;;;1.33;0.90;;;;;;;;;;5028364;28;20037;-64